createdAt,value
2024-01-15T00:00:08.924Z,17.8
2024-01-15T00:01:08.327Z,14.1
2024-01-15T00:02:08.694Z,13.7
2024-01-15T00:03:09.367Z,13.7
2024-01-15T00:04:09.178Z,13.7
2024-01-15T00:05:09.801Z,14.2
2024-01-15T00:06:10.072Z,14.2
2024-01-15T00:07:10.805Z,13.3
2024-01-15T00:08:10.824Z,12.9
2024-01-15T00:09:10.934Z,12.6
2024-01-15T00:10:11.533Z,14.2
2024-01-15T00:11:11.970Z,13.7
2024-01-15T00:12:12.661Z,15.8
2024-01-15T00:13:12.937Z,14
2024-01-15T00:14:12.938Z,14.6
2024-01-15T00:15:13.601Z,13.6
2024-01-15T00:16:13.870Z,13.4
2024-01-15T00:17:14.201Z,14.2
2024-01-15T00:18:14.653Z,15.6
2024-01-15T00:19:14.946Z,21.2
2024-01-15T00:20:15.546Z,18.6
2024-01-15T00:21:15.648Z,18.1
2024-01-15T00:22:16.053Z,15
2024-01-15T00:23:16.515Z,14
2024-01-15T00:24:17.204Z,16.2
2024-01-15T00:25:17.299Z,17.3
2024-01-15T00:26:17.522Z,14.1
2024-01-15T00:27:18.152Z,13.3
2024-01-15T00:28:18.366Z,13.2
2024-01-15T00:29:18.552Z,13.2
2024-01-15T00:30:19.236Z,13.3
2024-01-15T00:31:19.568Z,13.2
2024-01-15T00:32:19.817Z,13
2024-01-15T00:33:20.524Z,12.8
2024-01-15T00:34:20.756Z,12.9
2024-01-15T00:35:21.073Z,13.7
2024-01-15T00:36:21.948Z,12.8
2024-01-15T00:37:21.780Z,13.2
2024-01-15T00:38:22.304Z,13.6
2024-01-15T00:39:22.547Z,13.1
2024-01-15T00:40:22.649Z,12.8
2024-01-15T00:41:23.256Z,13.7
2024-01-15T00:42:23.736Z,13.6
2024-01-15T00:43:24.096Z,13.7
2024-01-15T00:44:24.395Z,13.4
2024-01-15T00:45:24.849Z,13.7
2024-01-15T00:46:25.221Z,13.9
2024-01-15T00:47:25.575Z,13.5
2024-01-15T00:48:26.192Z,13.5
2024-01-15T00:49:28.238Z,12.9
2024-01-15T00:50:26.641Z,13.5
2024-01-15T00:51:27.135Z,13.3
2024-01-15T00:52:27.405Z,12.3
2024-01-15T00:53:28.034Z,12.6
2024-01-15T00:54:28.505Z,13.3
2024-01-15T00:55:29.887Z,13.1
2024-01-15T00:56:28.877Z,13.7
2024-01-15T00:57:29.428Z,13.2
2024-01-15T00:58:29.709Z,13.7
2024-01-15T00:59:29.966Z,13
2024-01-15T01:00:30.635Z,14
2024-01-15T01:01:31.043Z,13.9
2024-01-15T01:02:31.184Z,13.7
2024-01-15T01:03:31.812Z,13.7
2024-01-15T01:04:31.940Z,13.6
2024-01-15T01:05:32.370Z,13.9
2024-01-15T01:06:34.426Z,13.3
2024-01-15T01:07:33.259Z,13.5
2024-01-15T01:08:33.589Z,13.8
2024-01-15T01:09:34.042Z,13.2
2024-01-15T01:10:34.215Z,13.3
2024-01-15T01:11:34.726Z,13.3
2024-01-15T01:12:35.235Z,13.5
2024-01-15T01:13:35.546Z,13.6
2024-01-15T01:14:35.921Z,13.6
2024-01-15T01:15:36.357Z,13.2
2024-01-15T01:16:36.677Z,17.8
2024-01-15T01:17:37.148Z,17.6
2024-01-15T01:18:37.734Z,14.9
2024-01-15T01:19:37.794Z,15.2
2024-01-15T01:20:38.262Z,13.7
2024-01-15T01:21:38.708Z,14.1
2024-01-15T01:22:38.883Z,13.2
2024-01-15T01:23:39.590Z,14
2024-01-15T01:24:39.773Z,13.8
2024-01-15T01:25:39.999Z,16.5
2024-01-15T01:26:40.447Z,15.9
2024-01-15T01:27:40.688Z,14.8
2024-01-15T01:28:41.284Z,16
2024-01-15T01:29:41.489Z,15.4
2024-01-15T01:30:43.559Z,15.1
2024-01-15T01:31:45.006Z,14.8
2024-01-15T01:32:44.345Z,14.9
2024-01-15T01:33:44.753Z,18.1
2024-01-15T01:34:44.985Z,17.4
2024-01-15T01:35:45.569Z,15.5
2024-01-15T01:36:45.988Z,17.3
2024-01-15T01:37:46.034Z,16
2024-01-15T01:38:46.663Z,16.3
2024-01-15T01:39:47.033Z,15.2
2024-01-15T01:40:47.237Z,13.5
2024-01-15T01:41:47.629Z,14.9
2024-01-15T01:42:50.192Z,14
2024-01-15T01:43:48.603Z,14.6
2024-01-15T01:44:48.797Z,14.2
2024-01-15T01:45:49.505Z,16.7
2024-01-15T01:46:49.894Z,19.9
2024-01-15T01:47:50.208Z,15.3
2024-01-15T01:48:50.665Z,15
2024-01-15T01:49:50.865Z,14.3
2024-01-15T01:50:51.178Z,14.3
2024-01-15T01:51:52.322Z,14.5
2024-01-15T01:52:52.100Z,14.1
2024-01-15T01:53:52.925Z,14.4
2024-01-15T01:54:53.765Z,14
2024-01-15T01:55:54.367Z,15.4
2024-01-15T01:56:53.626Z,14.8
2024-01-15T01:57:54.658Z,14.1
2024-01-15T01:58:54.937Z,14.2
2024-01-15T01:59:55.111Z,14.2
2024-01-15T02:00:55.333Z,14.6
2024-01-15T02:01:58.447Z,14.4
2024-01-15T02:02:56.069Z,14.7
2024-01-15T02:03:56.495Z,14.3
2024-01-15T02:04:56.849Z,14.2
2024-01-15T02:05:57.926Z,15.2
2024-01-15T02:06:57.550Z,15.1
2024-01-15T02:07:57.919Z,15.3
2024-01-15T02:08:58.948Z,14.8
2024-01-15T02:09:58.663Z,14.8
2024-01-15T02:10:59.258Z,14.4
2024-01-15T02:11:59.382Z,14.3
2024-01-15T02:12:59.717Z,19
2024-01-15T02:14:00.541Z,18.3
2024-01-15T02:15:00.825Z,16.8
2024-01-15T02:16:00.973Z,16.9
2024-01-15T02:17:01.558Z,15.5
2024-01-15T02:18:06.312Z,17.6
2024-01-15T02:19:04.289Z,16
2024-01-15T02:20:05.194Z,16.7
2024-01-15T02:21:05.322Z,15.2
2024-01-15T02:22:05.599Z,14.7
2024-01-15T02:23:15.932Z,13.8
2024-01-15T02:24:09.092Z,13.6
2024-01-15T02:25:09.148Z,14.4
2024-01-15T02:26:10.079Z,14.3
2024-01-15T02:27:10.576Z,15
2024-01-15T02:28:11.874Z,19.7
2024-01-15T02:29:10.651Z,20.2
2024-01-15T02:30:15.021Z,19.3
2024-01-15T02:31:12.783Z,17.7
2024-01-15T02:32:13.432Z,17.4
2024-01-15T02:33:14.608Z,21.6
2024-01-15T02:34:14.139Z,17.8
2024-01-15T02:35:14.097Z,14.2
2024-01-15T02:36:14.699Z,14.5
2024-01-15T02:37:15.627Z,13.5
2024-01-15T02:38:15.216Z,13.5
2024-01-15T02:39:15.816Z,14.8
2024-01-15T02:40:16.366Z,14.3
2024-01-15T02:41:16.593Z,17.1
2024-01-15T02:42:16.903Z,19
2024-01-15T02:43:17.205Z,17.6
2024-01-15T02:44:17.787Z,16.5
2024-01-15T02:45:18.437Z,15.5
2024-01-15T02:46:18.452Z,14.2
2024-01-15T02:47:18.854Z,13.9
2024-01-15T02:48:19.389Z,14.4
2024-01-15T02:49:19.850Z,14.4
2024-01-15T02:50:19.926Z,13.9
2024-01-15T02:51:20.426Z,14.8
2024-01-15T02:52:20.839Z,14.7
2024-01-15T02:53:21.264Z,14.2
2024-01-15T02:54:21.587Z,15.4
2024-01-15T02:55:21.900Z,15.5
2024-01-15T02:56:22.187Z,15.3
2024-01-15T02:57:22.673Z,14.3
2024-01-15T02:58:23.348Z,14.7
2024-01-15T02:59:23.398Z,14.5
2024-01-15T03:00:23.793Z,14.4
2024-01-15T03:01:24.102Z,13.8
2024-01-15T03:02:24.593Z,15.3
2024-01-15T03:03:24.996Z,15
2024-01-15T03:04:25.622Z,15.6
2024-01-15T03:05:25.656Z,13.7
2024-01-15T03:06:26.134Z,14.6
2024-01-15T03:07:26.877Z,14.4
2024-01-15T03:08:26.786Z,15.3
2024-01-15T03:09:27.358Z,14.9
2024-01-15T03:10:27.835Z,14.7
2024-01-15T03:11:28.036Z,14.8
2024-01-15T03:12:28.374Z,15
2024-01-15T03:13:28.856Z,14.2
2024-01-15T03:14:29.223Z,14.5
2024-01-15T03:15:29.581Z,14.6
2024-01-15T03:16:29.906Z,14.3
2024-01-15T03:17:30.347Z,14.2
2024-01-15T03:18:31.041Z,14.9
2024-01-15T03:19:31.396Z,14.6
2024-01-15T03:20:32.199Z,15.2
2024-01-15T03:21:32.034Z,15.3
2024-01-15T03:22:32.297Z,15.4
2024-01-15T03:23:32.663Z,14.4
2024-01-15T03:24:34.077Z,14.6
2024-01-15T03:25:33.360Z,14.5
2024-01-15T03:26:33.727Z,15.8
2024-01-15T03:27:34.306Z,17.9
2024-01-15T03:28:34.697Z,17.9
2024-01-15T03:29:35.028Z,15.5
2024-01-15T03:30:35.565Z,16
2024-01-15T03:31:35.803Z,15.5
2024-01-15T03:32:36.344Z,15
2024-01-15T03:33:36.546Z,15.8
2024-01-15T03:34:37.278Z,15.6
2024-01-15T03:35:37.228Z,15.6
2024-01-15T03:36:37.866Z,15.7
2024-01-15T03:37:38.476Z,15
2024-01-15T03:38:42.541Z,15.8
2024-01-15T03:39:40.199Z,15.5
2024-01-15T03:40:40.740Z,15.8
2024-01-15T03:41:40.685Z,15.4
2024-01-15T03:42:41.322Z,15.2
2024-01-15T03:43:41.759Z,15.2
2024-01-15T03:44:41.921Z,15.5
2024-01-15T03:45:42.226Z,14.9
2024-01-15T03:46:42.675Z,14.9
2024-01-15T03:47:43.246Z,15.4
2024-01-15T03:48:43.672Z,15.6
2024-01-15T03:49:44.120Z,15
2024-01-15T03:50:44.372Z,15.4
2024-01-15T03:51:44.777Z,15.9
2024-01-15T03:52:45.120Z,15.2
2024-01-15T03:53:45.729Z,16.5
2024-01-15T03:54:45.965Z,15.1
2024-01-15T03:55:46.358Z,16
2024-01-15T03:56:46.558Z,15.2
2024-01-15T03:57:47.776Z,15.8
2024-01-15T03:58:48.204Z,15.3
2024-01-15T03:59:48.715Z,15.6
2024-01-15T04:00:49.214Z,15.4
2024-01-15T04:01:52.335Z,16
2024-01-15T04:02:49.872Z,15.3
2024-01-15T04:03:50.124Z,15
2024-01-15T04:04:50.881Z,16
2024-01-15T04:05:51.098Z,14.9
2024-01-15T04:06:51.481Z,15.3
2024-01-15T04:07:51.750Z,15.2
2024-01-15T04:08:52.016Z,14.8
2024-01-15T04:09:52.655Z,16.3
2024-01-15T04:10:52.886Z,15.2
2024-01-15T04:11:53.435Z,15.4
2024-01-15T04:12:54.036Z,14.9
2024-01-15T04:13:54.047Z,14.6
2024-01-15T04:14:54.557Z,14.4
2024-01-15T04:15:54.872Z,14.3
2024-01-15T04:16:55.197Z,14.2
2024-01-15T04:17:55.867Z,14.7
2024-01-15T04:18:56.135Z,14.7
2024-01-15T04:19:56.549Z,15
2024-01-15T04:20:56.877Z,14.6
2024-01-15T04:21:57.205Z,15.1
2024-01-15T04:22:57.529Z,15.4
2024-01-15T04:23:58.009Z,15.4
2024-01-15T04:24:59.160Z,14.7
2024-01-15T04:25:58.551Z,14.7
2024-01-15T04:26:59.261Z,15.2
2024-01-15T04:27:59.556Z,15.2
2024-01-15T04:28:59.901Z,14.3
2024-01-15T04:30:00.499Z,14.8
2024-01-15T04:31:00.842Z,14.8
2024-01-15T04:32:01.250Z,14.8
2024-01-15T04:33:01.714Z,14.8
2024-01-15T04:34:02.055Z,13.8
2024-01-15T04:35:02.292Z,14.4
2024-01-15T04:36:04.142Z,14.7
2024-01-15T04:37:03.522Z,15.8
2024-01-15T04:38:03.881Z,14.4
2024-01-15T04:39:04.252Z,15.2
2024-01-15T04:40:05.078Z,15.9
2024-01-15T04:41:04.986Z,14.8
2024-01-15T04:42:05.651Z,15.5
2024-01-15T04:43:05.312Z,15.9
2024-01-15T04:44:05.932Z,15.1
2024-01-15T04:45:06.975Z,14.2
2024-01-15T04:46:09.466Z,15
2024-01-15T04:47:07.068Z,16.4
2024-01-15T04:48:07.977Z,14.6
2024-01-15T04:49:08.249Z,15.2
2024-01-15T04:50:09.037Z,15.3
2024-01-15T04:51:10.468Z,14.9
2024-01-15T04:52:08.940Z,15.1
2024-01-15T04:53:12.660Z,14.6
2024-01-15T04:54:10.939Z,16.8
2024-01-15T04:55:11.413Z,16.6
2024-01-15T04:56:12.046Z,15.8
2024-01-15T04:57:12.319Z,16.5
2024-01-15T04:58:12.453Z,16.3
2024-01-15T04:59:12.917Z,16.2
2024-01-15T05:00:14.167Z,15.7
2024-01-15T05:01:16.726Z,17.1
2024-01-15T05:02:14.758Z,16.3
2024-01-15T05:03:15.369Z,16.4
2024-01-15T05:04:15.739Z,17.4
2024-01-15T05:05:16.438Z,15.3
2024-01-15T05:06:16.578Z,15.3
2024-01-15T05:07:16.729Z,14.2
2024-01-15T05:08:17.147Z,14.5
2024-01-15T05:09:17.882Z,12.7
2024-01-15T05:10:17.964Z,13.8
2024-01-15T05:11:19.305Z,13.3
2024-01-15T05:12:18.910Z,14
2024-01-15T05:13:19.115Z,13.9
2024-01-15T05:14:19.542Z,13.9
2024-01-15T05:15:19.952Z,13.7
2024-01-15T05:16:20.356Z,13.8
2024-01-15T05:17:20.664Z,13.9
2024-01-15T05:18:21.365Z,13.3
2024-01-15T05:19:21.777Z,13.9
2024-01-15T05:20:22.986Z,13.8
2024-01-15T05:21:22.516Z,12.8
2024-01-15T05:22:22.766Z,13.9
2024-01-15T05:23:23.190Z,13.4
2024-01-15T05:24:24.349Z,14.6
2024-01-15T05:25:25.024Z,15.3
2024-01-15T05:26:25.162Z,15
2024-01-15T05:27:25.563Z,14.6
2024-01-15T05:28:25.765Z,16.3
2024-01-15T05:29:26.133Z,18.8
2024-01-15T05:30:27.487Z,23.3
2024-01-15T05:31:27.720Z,19.8
2024-01-15T05:32:28.131Z,17.9
2024-01-15T05:33:28.805Z,15.5
2024-01-15T05:34:28.945Z,14.8
2024-01-15T05:35:29.414Z,14
2024-01-15T05:36:29.740Z,14.3
2024-01-15T05:37:30.179Z,14.1
2024-01-15T05:38:30.857Z,13.2
2024-01-15T05:39:31.023Z,13.5
2024-01-15T05:40:31.386Z,14.8
2024-01-15T05:41:31.541Z,13.7
2024-01-15T05:42:32.232Z,13.2
2024-01-15T05:43:32.831Z,12.7
2024-01-15T05:44:32.788Z,13.4
2024-01-15T05:45:35.295Z,13
2024-01-15T05:46:33.670Z,12.3
2024-01-15T05:47:34.131Z,12.5
2024-01-15T05:48:34.689Z,12.2
2024-01-15T05:49:34.937Z,12.6
2024-01-15T05:50:35.346Z,13.5
2024-01-15T05:51:35.804Z,13.4
2024-01-15T05:52:36.285Z,12.8
2024-01-15T05:53:36.480Z,13.4
2024-01-15T05:54:36.968Z,12.8
2024-01-15T05:55:38.065Z,13.5
2024-01-15T05:56:37.622Z,14.2
2024-01-15T05:57:38.167Z,17.1
2024-01-15T05:58:38.685Z,16.4
2024-01-15T05:59:38.840Z,16.4
2024-01-15T06:00:39.510Z,15.3
2024-01-15T06:01:39.634Z,14.7
2024-01-15T06:02:40.108Z,14.6
2024-01-15T06:03:40.522Z,15.4
2024-01-15T06:04:40.861Z,14.7
2024-01-15T06:05:41.449Z,15.3
2024-01-15T06:06:41.636Z,15.2
2024-01-15T06:07:43.126Z,14.8
2024-01-15T06:08:42.311Z,13.1
2024-01-15T06:09:43.001Z,13.4
2024-01-15T06:10:43.468Z,13.4
2024-01-15T06:11:44.280Z,15.2
2024-01-15T06:12:45.590Z,14.3
2024-01-15T06:13:45.112Z,14.1
2024-01-15T06:14:45.557Z,13.9
2024-01-15T06:15:46.092Z,14.2
2024-01-15T06:16:46.368Z,14.2
2024-01-15T06:17:46.760Z,13.5
2024-01-15T06:18:47.526Z,14
2024-01-15T06:19:47.682Z,15.3
2024-01-15T06:20:47.979Z,14.8
2024-01-15T06:21:48.359Z,14.1
2024-01-15T06:22:48.657Z,14.1
2024-01-15T06:23:49.091Z,13.8
2024-01-15T06:24:49.623Z,14
2024-01-15T06:25:50.213Z,13.5
2024-01-15T06:26:50.528Z,13.5
2024-01-15T06:27:51.148Z,16
2024-01-15T06:28:51.257Z,16
2024-01-15T06:29:51.643Z,16.6
2024-01-15T06:30:52.023Z,15.5
2024-01-15T06:31:52.409Z,14.5
2024-01-15T06:32:52.936Z,15.9
2024-01-15T06:33:53.225Z,15.2
2024-01-15T06:34:54.155Z,14.8
2024-01-15T06:35:54.694Z,15.5
2024-01-15T06:36:55.284Z,15.2
2024-01-15T06:37:55.350Z,15.2
2024-01-15T06:38:56.239Z,15.8
2024-01-15T06:39:56.319Z,16.1
2024-01-15T06:40:56.663Z,17.6
2024-01-15T06:41:56.969Z,15.6
2024-01-15T06:42:57.375Z,16.4
2024-01-15T06:43:57.766Z,15.1
2024-01-15T06:44:58.132Z,16.4
2024-01-15T06:45:58.776Z,16
2024-01-15T06:46:58.871Z,17.5
2024-01-15T06:47:59.451Z,16.8
2024-01-15T06:49:00.051Z,16.8
2024-01-15T06:50:00.632Z,17.2
2024-01-15T06:51:00.591Z,15.8
2024-01-15T06:52:01.093Z,17
2024-01-15T06:53:01.372Z,16.4
2024-01-15T06:54:01.868Z,16.6
2024-01-15T06:55:02.164Z,16.1
2024-01-15T06:56:02.702Z,14.6
2024-01-15T06:57:03.010Z,14.1
2024-01-15T06:58:03.656Z,13.9
2024-01-15T06:59:03.758Z,15
2024-01-15T07:00:04.822Z,15.1
2024-01-15T07:01:05.157Z,13.6
2024-01-15T07:02:05.621Z,14.9
2024-01-15T07:03:05.790Z,14.6
2024-01-15T07:04:05.940Z,14.8
2024-01-15T07:05:06.819Z,14.2
2024-01-15T07:06:06.880Z,14.3
2024-01-15T07:07:06.911Z,14.6
2024-01-15T07:08:07.517Z,13.9
2024-01-15T07:09:07.743Z,14.8
2024-01-15T07:10:09.436Z,14.8
2024-01-15T07:11:08.846Z,16.8
2024-01-15T07:12:09.223Z,15.9
2024-01-15T07:13:10.104Z,13.7
2024-01-15T07:14:09.910Z,14.4
2024-01-15T07:15:10.564Z,13.6
2024-01-15T07:16:10.752Z,13.8
2024-01-15T07:17:11.141Z,13.8
2024-01-15T07:18:11.534Z,12.5
2024-01-15T07:19:12.585Z,14.1
2024-01-15T07:20:12.874Z,18.6
2024-01-15T07:21:12.877Z,13.8
2024-01-15T07:22:13.312Z,13.9
2024-01-15T07:23:13.527Z,13.3
2024-01-15T07:24:13.762Z,14
2024-01-15T07:25:14.296Z,13.6
2024-01-15T07:26:15.103Z,13.2
2024-01-15T07:27:15.015Z,13.6
2024-01-15T07:28:15.436Z,13
2024-01-15T07:29:16.144Z,22.1
2024-01-15T07:30:16.587Z,15.6
2024-01-15T07:31:19.626Z,13.7
2024-01-15T07:32:17.396Z,12.7
2024-01-15T07:33:17.876Z,12.9
2024-01-15T07:34:18.780Z,12.2
2024-01-15T07:35:18.961Z,13.4
2024-01-15T07:36:18.916Z,12.9
2024-01-15T07:37:19.259Z,13.9
2024-01-15T07:38:19.813Z,14
2024-01-15T07:39:20.415Z,13.5
2024-01-15T07:40:20.406Z,14.1
2024-01-15T07:41:20.859Z,13.6
2024-01-15T07:42:21.281Z,13.3
2024-01-15T07:43:21.660Z,14
2024-01-15T07:44:22.908Z,13.8
2024-01-15T07:45:23.079Z,13.3
2024-01-15T07:46:23.462Z,13.7
2024-01-15T07:47:24.072Z,13.7
2024-01-15T07:48:24.445Z,12.3
2024-01-15T07:49:24.827Z,12.1
2024-01-15T07:50:25.083Z,12.7
2024-01-15T07:51:26.136Z,12.6
2024-01-15T07:52:26.032Z,13.3
2024-01-15T07:53:26.164Z,13.4
2024-01-15T07:54:26.815Z,13.3
2024-01-15T07:55:27.918Z,13.6
2024-01-15T07:56:28.298Z,12.6
2024-01-15T07:57:28.994Z,12.7
2024-01-15T07:58:28.978Z,12.2
2024-01-15T07:59:29.644Z,12
2024-01-15T08:00:30.124Z,12.4
2024-01-15T08:01:30.313Z,13
2024-01-15T08:02:32.658Z,12.9
2024-01-15T08:03:31.775Z,13.4
2024-01-15T08:04:32.271Z,13.8
2024-01-15T08:05:32.477Z,15.1
2024-01-15T08:06:32.965Z,14.3
2024-01-15T08:07:33.307Z,13.1
2024-01-15T08:08:33.818Z,12.4
2024-01-15T08:09:34.292Z,12.4
2024-01-15T08:10:34.515Z,11.4
2024-01-15T08:11:35.556Z,11.5
2024-01-15T08:12:35.517Z,12.1
2024-01-15T08:13:35.843Z,11.5
2024-01-15T08:14:36.299Z,11.6
2024-01-15T08:15:36.730Z,11.8
2024-01-15T08:16:37.587Z,14.8
2024-01-15T08:17:37.394Z,15.7
2024-01-15T08:18:37.718Z,13.5
2024-01-15T08:19:38.336Z,12.1
2024-01-15T08:20:38.620Z,19.2
2024-01-15T08:21:39.089Z,15.5
2024-01-15T08:22:40.315Z,17.9
2024-01-15T08:23:40.039Z,16
2024-01-15T08:24:40.504Z,17.3
2024-01-15T08:25:40.898Z,16.9
2024-01-15T08:26:40.982Z,17.3
2024-01-15T08:27:44.516Z,15.2
2024-01-15T08:28:42.572Z,12.3
2024-01-15T08:29:42.655Z,11.2
2024-01-15T08:30:43.083Z,11.4
2024-01-15T08:31:43.548Z,11.1
2024-01-15T08:32:44.229Z,10.9
2024-01-15T08:33:44.510Z,11
2024-01-15T08:34:44.708Z,9.9
2024-01-15T08:35:45.033Z,10.7
2024-01-15T08:36:45.303Z,11.6
2024-01-15T08:37:46.491Z,12.7
2024-01-15T08:38:46.806Z,11.6
2024-01-15T08:39:50.255Z,10.6
2024-01-15T08:40:50.521Z,11.7
2024-01-15T08:41:49.413Z,10
2024-01-15T08:42:49.888Z,11.4
2024-01-15T08:43:50.096Z,10
2024-01-15T08:44:50.757Z,9.8
2024-01-15T08:45:51.581Z,11.3
2024-01-15T08:46:51.934Z,12.5
2024-01-15T08:47:52.514Z,11
2024-01-15T08:48:52.858Z,10.4
2024-01-15T08:49:53.143Z,9.3
2024-01-15T08:50:54.146Z,9.6
2024-01-15T08:51:54.181Z,8
2024-01-15T08:52:54.537Z,9
2024-01-15T08:53:54.693Z,9.8
2024-01-15T08:54:56.504Z,8.8
2024-01-15T08:55:55.462Z,9.1
2024-01-15T08:56:56.076Z,10.9
2024-01-15T08:57:56.403Z,22.5
2024-01-15T08:58:56.567Z,26.9
2024-01-15T08:59:57.003Z,38.2
2024-01-15T09:00:57.761Z,35.9
2024-01-15T09:01:57.825Z,44.5
2024-01-15T09:02:58.117Z,30.1
2024-01-15T09:03:58.415Z,21.2
2024-01-15T09:04:58.972Z,20.2
2024-01-15T09:05:59.142Z,23.5
2024-01-15T09:06:59.704Z,20.7
2024-01-15T09:07:59.900Z,8.6
2024-01-15T09:09:00.206Z,10.8
2024-01-15T09:10:00.743Z,14.9
2024-01-15T09:11:00.849Z,14.5
2024-01-15T09:12:01.357Z,11
2024-01-15T09:13:01.853Z,9.8
2024-01-15T09:14:02.009Z,9.9
2024-01-15T09:15:02.342Z,10.7
2024-01-15T09:16:02.491Z,11.9
2024-01-15T09:17:02.846Z,11.9
2024-01-15T09:18:06.249Z,9.3
2024-01-15T09:19:05.682Z,37.8
2024-01-15T09:20:07.088Z,39.8
2024-01-15T09:21:06.316Z,133.7
2024-01-15T09:22:06.718Z,181.3
2024-01-15T09:23:06.853Z,46.1
2024-01-15T09:24:07.793Z,17.4
2024-01-15T09:25:08.180Z,15.4
2024-01-15T09:26:10.021Z,11.2
2024-01-15T09:27:08.222Z,15.2
2024-01-15T09:28:09.404Z,13.9
2024-01-15T09:29:08.689Z,8.8
2024-01-15T09:30:09.944Z,11.7
2024-01-15T09:31:09.545Z,21.3
2024-01-15T09:32:09.791Z,29
2024-01-15T09:33:10.235Z,20.9
2024-01-15T09:34:10.499Z,21.3
2024-01-15T09:35:10.993Z,13.7
2024-01-15T09:36:11.200Z,5.7
2024-01-15T09:37:14.852Z,5.2
2024-01-15T09:38:12.411Z,5.6
2024-01-15T09:39:12.773Z,6.6
2024-01-15T09:40:17.189Z,7.3
2024-01-15T09:41:15.580Z,7.2
2024-01-15T09:42:15.516Z,45.5
2024-01-15T09:43:16.234Z,10.6
2024-01-15T09:44:16.679Z,15.1
2024-01-15T09:45:16.930Z,11.3
2024-01-15T09:46:16.857Z,6.6
2024-01-15T09:47:18.384Z,8
2024-01-15T09:48:17.566Z,5.3
2024-01-15T09:49:18.403Z,6.6
2024-01-15T09:50:18.453Z,4.5
2024-01-15T09:51:19.275Z,3.5
2024-01-15T09:52:20.418Z,3.2
2024-01-15T09:53:19.912Z,3.5
2024-01-15T09:54:19.287Z,3.2
2024-01-15T09:55:20.092Z,3.1
2024-01-15T09:56:20.170Z,3.1
2024-01-15T09:57:20.594Z,2.9
2024-01-15T09:58:20.935Z,2.7
2024-01-15T09:59:23.386Z,3
2024-01-15T10:00:23.550Z,3.5
2024-01-15T10:01:22.236Z,2.8
2024-01-15T10:02:22.386Z,2.7
2024-01-15T10:03:22.269Z,3.5
2024-01-15T10:04:23.099Z,3
2024-01-15T10:05:23.104Z,3.4
2024-01-15T10:06:23.681Z,4
2024-01-15T10:07:26.682Z,3.9
2024-01-15T10:08:24.657Z,3.7
2024-01-15T10:09:24.441Z,2.7
2024-01-15T10:10:24.980Z,2.8
2024-01-15T10:11:25.352Z,2.6
2024-01-15T10:12:25.963Z,2.9
2024-01-15T10:13:25.915Z,2.7
2024-01-15T10:14:26.032Z,2.8
2024-01-15T10:15:29.069Z,2.9
2024-01-15T10:16:29.529Z,2.8
2024-01-15T10:17:27.115Z,2.4
2024-01-15T10:18:27.709Z,2.5
2024-01-15T10:19:27.826Z,2.3
2024-01-15T10:20:28.173Z,2.2
2024-01-15T10:21:28.597Z,2.4
2024-01-15T10:22:28.894Z,3.6
2024-01-15T10:23:29.172Z,3
2024-01-15T10:24:29.425Z,5
2024-01-15T10:25:30.728Z,2.8
2024-01-15T10:26:31.079Z,3
2024-01-15T10:27:30.506Z,2.6
2024-01-15T10:28:32.160Z,2.6
2024-01-15T10:29:31.157Z,2.4
2024-01-15T10:30:33.051Z,2.2
2024-01-15T10:31:32.325Z,2.2
2024-01-15T10:32:32.254Z,2.1
2024-01-15T10:33:32.632Z,2.1
2024-01-15T10:34:32.768Z,2.1
2024-01-15T10:35:36.379Z,2.1
2024-01-15T10:36:33.814Z,1.9
2024-01-15T10:37:36.818Z,2.2
2024-01-15T10:38:34.515Z,2.2
2024-01-15T10:39:34.972Z,2.2
2024-01-15T10:40:35.336Z,4.2
2024-01-15T10:41:35.974Z,9.5
2024-01-15T10:42:35.906Z,4.5
2024-01-15T10:43:36.310Z,3.9
2024-01-15T10:44:37.196Z,2.5
2024-01-15T10:45:36.805Z,2.6
2024-01-15T10:46:37.848Z,3
2024-01-15T10:47:37.984Z,2.3
2024-01-15T10:48:37.908Z,2.2
2024-01-15T10:49:38.237Z,2
2024-01-15T10:50:38.509Z,2
2024-01-15T10:51:39.867Z,1.9
2024-01-15T10:52:40.598Z,2
2024-01-15T10:53:40.405Z,2
2024-01-15T10:54:40.674Z,2
2024-01-15T10:55:40.385Z,2
2024-01-15T10:56:41.477Z,1.9
2024-01-15T10:57:40.750Z,1.9
2024-01-15T10:58:42.801Z,2.6
2024-01-15T10:59:41.479Z,18.7
2024-01-15T11:00:41.976Z,11.8
2024-01-15T11:01:44.086Z,10.7
2024-01-15T11:02:42.986Z,7.1
2024-01-15T11:03:44.417Z,20.7
2024-01-15T11:04:43.178Z,25.6
2024-01-15T11:05:44.766Z,17.6
2024-01-15T11:06:46.748Z,12.2
2024-01-15T11:07:44.591Z,5
2024-01-15T11:08:45.267Z,4.1
2024-01-15T11:09:46.440Z,2.5
2024-01-15T11:10:48.395Z,3.1
2024-01-15T11:11:47.228Z,8.3
2024-01-15T11:12:49.088Z,18.6
2024-01-15T11:13:49.361Z,49.2
2024-01-15T11:14:50.544Z,58.2
2024-01-15T11:16:57.787Z,5.6
2024-01-15T11:18:02.534Z,2.9
2024-01-15T11:19:04.259Z,7.2
2024-01-15T11:20:02.102Z,13.8
2024-01-15T11:22:03.950Z,9.9
2024-01-15T11:23:04.584Z,10.2
2024-01-15T11:24:04.921Z,6.5
2024-01-15T11:27:09.178Z,4.6
2024-01-15T11:28:07.991Z,6.8
2024-01-15T11:30:14.279Z,2.8
2024-01-15T11:31:15.139Z,2.4
2024-01-15T11:32:13.648Z,2.7
2024-01-15T11:34:19.478Z,5.4
2024-01-15T11:35:19.820Z,6.2
2024-01-15T11:36:19.934Z,6.5
2024-01-15T11:37:21.191Z,6.6
2024-01-15T11:38:29.765Z,9.8
2024-01-15T11:40:39.684Z,4.8
2024-01-15T11:41:29.725Z,7.8
2024-01-15T11:42:27.393Z,6.9
2024-01-15T11:43:27.875Z,8.1
2024-01-15T11:44:28.432Z,5.9
2024-01-15T11:45:29.191Z,5.2
2024-01-15T11:46:37.099Z,16.2
2024-01-15T11:48:44.600Z,8.6
2024-01-15T11:50:45.717Z,4.3
2024-01-15T11:51:43.479Z,3.6
2024-01-15T11:52:55.561Z,3.2
2024-01-15T11:53:52.320Z,2.9
2024-01-15T11:55:02.845Z,4.5
2024-01-15T11:55:52.763Z,3.8
2024-01-15T11:56:51.064Z,4.1
2024-01-15T11:57:54.803Z,3.6
2024-01-15T11:58:52.735Z,3.1
2024-01-15T11:59:52.779Z,3.1
2024-01-15T12:00:54.736Z,4.2
2024-01-15T12:01:54.361Z,5.5
2024-01-15T12:02:53.796Z,5
2024-01-15T12:03:54.163Z,3.9
2024-01-15T12:04:54.406Z,4.6
2024-01-15T12:05:54.858Z,5.6
2024-01-15T12:06:55.262Z,5.6
2024-01-15T12:07:55.328Z,4.2
2024-01-15T12:09:07.969Z,3.6
2024-01-15T12:10:00.577Z,3.1
2024-01-15T12:11:00.908Z,3.2
2024-01-15T12:12:13.540Z,6.8
2024-01-15T12:13:14.231Z,11.3
2024-01-15T12:14:06.774Z,14.5
2024-01-15T12:15:07.739Z,12.5
2024-01-15T12:16:07.803Z,14.3
2024-01-15T12:17:08.010Z,10.3
2024-01-15T12:18:09.594Z,7
2024-01-15T12:19:08.826Z,4.8
2024-01-15T12:20:10.126Z,4.8
2024-01-15T12:21:10.952Z,7.7
2024-01-15T12:22:09.583Z,14.4
2024-01-15T12:23:10.575Z,12.5
2024-01-15T12:24:10.200Z,9.2
2024-01-15T12:25:11.005Z,5.7
2024-01-15T12:26:11.850Z,5.3
2024-01-15T12:27:11.391Z,4.5
2024-01-15T12:28:11.721Z,4.1
2024-01-15T12:29:12.709Z,10.6
2024-01-15T12:30:13.492Z,7.5
2024-01-15T12:31:12.745Z,4.9
2024-01-15T12:32:14.165Z,4.7
2024-01-15T12:33:13.866Z,5.4
2024-01-15T12:34:13.613Z,4.5
2024-01-15T12:35:14.369Z,3.9
2024-01-15T12:36:14.931Z,3.2
2024-01-15T12:37:14.492Z,3.8
2024-01-15T12:38:14.920Z,4
2024-01-15T12:39:15.356Z,3.6
2024-01-15T12:40:20.854Z,3.1
2024-01-15T12:41:18.735Z,2.9
2024-01-15T12:42:18.937Z,3.1
2024-01-15T12:43:19.477Z,2.9
2024-01-15T12:44:19.865Z,4
2024-01-15T12:45:20.120Z,4.8
2024-01-15T12:46:19.990Z,4.3
2024-01-15T12:47:21.228Z,4.3
2024-01-15T12:48:20.736Z,4.2
2024-01-15T12:49:21.298Z,4.7
2024-01-15T12:50:24.821Z,4.3
2024-01-15T12:51:26.430Z,4.9
2024-01-15T12:52:23.993Z,4.1
2024-01-15T12:53:24.509Z,4
2024-01-15T12:54:25.375Z,4.8
2024-01-15T12:55:25.003Z,6.6
2024-01-15T12:56:25.515Z,5.8
2024-01-15T12:57:25.741Z,5.8
2024-01-15T12:58:26.053Z,5.7
2024-01-15T12:59:26.322Z,4.7
2024-01-15T13:00:26.836Z,7
2024-01-15T13:01:27.043Z,5.2
2024-01-15T13:02:27.628Z,7
2024-01-15T13:03:27.736Z,4.4
2024-01-15T13:04:28.409Z,6.6
2024-01-15T13:05:29.724Z,5.4
2024-01-15T13:06:28.768Z,3.8
2024-01-15T13:07:28.987Z,4.2
2024-01-15T13:08:29.297Z,12.5
2024-01-15T13:09:29.831Z,14.6
2024-01-15T13:10:29.977Z,14.6
2024-01-15T13:11:30.600Z,13
2024-01-15T13:12:30.973Z,13.8
2024-01-15T13:13:31.153Z,15.4
2024-01-15T13:14:31.663Z,26.8
2024-01-15T13:15:31.908Z,30.7
2024-01-15T13:16:32.070Z,32.9
2024-01-15T13:17:32.552Z,42.3
2024-01-15T13:18:32.875Z,61.1
2024-01-15T13:19:33.010Z,61.3
2024-01-15T13:20:33.423Z,26.9
2024-01-15T13:21:33.808Z,23.7
2024-01-15T13:22:34.204Z,70.9
2024-01-15T13:23:34.438Z,68.9
2024-01-15T13:24:34.717Z,45.2
2024-01-15T13:25:34.995Z,39.7
2024-01-15T13:26:36.147Z,32.7
2024-01-15T13:27:36.108Z,27.8
2024-01-15T13:28:36.102Z,23.8
2024-01-15T13:29:36.398Z,24.8
2024-01-15T13:30:36.859Z,23.2
2024-01-15T13:31:37.251Z,11.6
2024-01-15T13:32:37.568Z,8.2
2024-01-15T13:33:39.933Z,22.5
2024-01-15T13:34:38.741Z,23.7
2024-01-15T13:35:39.124Z,30.6
2024-01-15T13:36:39.515Z,25.9
2024-01-15T13:37:39.986Z,27.2
2024-01-15T13:38:40.107Z,27.2
2024-01-15T13:39:40.584Z,25.2
2024-01-15T13:40:40.835Z,24.3
2024-01-15T13:41:41.204Z,17.5
2024-01-15T13:42:41.331Z,14
2024-01-15T13:43:41.735Z,15.6
2024-01-15T13:44:42.105Z,15.5